createdAt,value
2023-02-16T00:00:21.490Z,14.80
2023-02-16T00:03:24.708Z,14.80
2023-02-16T00:06:28.820Z,14.80
2023-02-16T00:09:31.792Z,14.70
2023-02-16T00:12:54.588Z,14.60
2023-02-16T00:15:58.002Z,14.50
2023-02-16T00:19:00.898Z,14.50
2023-02-16T00:22:05.245Z,14.40
2023-02-16T00:25:08.320Z,14.30
2023-02-16T00:28:19.677Z,14.30
2023-02-16T00:31:24.747Z,14.20
2023-02-16T00:34:34.079Z,14.20
2023-02-16T00:37:36.388Z,14.20
2023-02-16T00:40:38.845Z,14.10
2023-02-16T00:43:40.914Z,14.10
2023-02-16T00:46:44.445Z,14.10
2023-02-16T00:49:51.572Z,14.10
2023-02-16T00:52:53.932Z,14.00
2023-02-16T00:55:57.099Z,14.00
2023-02-16T00:58:59.983Z,14.00
2023-02-16T01:02:01.979Z,14.00
2023-02-16T01:05:04.678Z,14.00
2023-02-16T01:08:33.365Z,14.00
2023-02-16T01:11:35.483Z,14.00
2023-02-16T01:14:37.622Z,14.00
2023-02-16T01:17:39.838Z,14.00
2023-02-16T01:20:42.359Z,14.00
2023-02-16T01:23:44.658Z,14.00
2023-02-16T01:26:49.822Z,14.00
2023-02-16T01:29:51.837Z,14.00
2023-02-16T01:32:54.455Z,13.90
2023-02-16T01:35:57.420Z,13.90
2023-02-16T01:39:00.320Z,13.90
2023-02-16T01:42:13.963Z,13.90
2023-02-16T01:45:20.432Z,13.90
2023-02-16T01:48:28.930Z,13.80
2023-02-16T01:51:49.326Z,13.80
2023-02-16T01:55:13.909Z,13.80
2023-02-16T01:59:05.072Z,13.80
2023-02-16T02:02:36.334Z,13.80
2023-02-16T02:05:39.735Z,13.70
2023-02-16T02:09:02.138Z,13.60
2023-02-16T02:12:14.385Z,13.60
2023-02-16T02:15:19.728Z,13.60
2023-02-16T02:18:22.702Z,13.50
2023-02-16T02:21:57.043Z,13.50
2023-02-16T02:25:15.438Z,13.50
2023-02-16T02:28:26.578Z,13.50
2023-02-16T02:31:37.179Z,13.50
2023-02-16T02:34:48.290Z,13.50
2023-02-16T02:38:09.765Z,13.50
2023-02-16T02:41:46.464Z,13.40
2023-02-16T02:45:14.120Z,13.40
2023-02-16T02:48:16.271Z,13.40
2023-02-16T02:51:30.989Z,13.40
2023-02-16T02:54:56.488Z,13.40
2023-02-16T02:58:37.364Z,13.40
2023-02-16T03:01:43.298Z,13.40
2023-02-16T03:04:48.298Z,13.40
2023-02-16T03:07:57.441Z,13.40
2023-02-16T03:11:28.633Z,13.30
2023-02-16T03:14:51.576Z,13.40
2023-02-16T03:18:15.183Z,13.30
2023-02-16T03:21:36.016Z,13.30
2023-02-16T03:24:56.516Z,13.30
2023-02-16T03:28:21.456Z,13.20
2023-02-16T03:31:33.010Z,13.20
2023-02-16T03:34:38.039Z,13.20
2023-02-16T03:37:44.994Z,13.10
2023-02-16T03:40:50.767Z,13.10
2023-02-16T03:43:52.884Z,13.10
2023-02-16T03:46:54.953Z,13.00
2023-02-16T03:49:57.908Z,13.10
2023-02-16T03:53:09.189Z,13.00
2023-02-16T03:56:11.391Z,13.00
2023-02-16T03:59:13.437Z,12.90
2023-02-16T04:02:15.673Z,12.90
2023-02-16T04:05:17.825Z,12.80
2023-02-16T04:08:20.015Z,12.80
2023-02-16T04:11:40.580Z,12.80
2023-02-16T04:14:43.754Z,12.70
2023-02-16T04:17:46.356Z,12.70
2023-02-16T04:20:48.597Z,12.60
2023-02-16T04:23:50.860Z,12.60
2023-02-16T04:26:53.149Z,12.60
2023-02-16T04:29:55.224Z,12.50
2023-02-16T04:32:59.684Z,12.50
2023-02-16T04:36:01.783Z,12.40
2023-02-16T04:39:04.050Z,12.40
2023-02-16T04:42:06.463Z,12.30
2023-02-16T04:45:12.695Z,12.30
2023-02-16T04:48:14.863Z,12.30
2023-02-16T04:51:16.895Z,12.20
2023-02-16T04:54:19.097Z,12.20
2023-02-16T04:57:22.692Z,12.10
2023-02-16T05:00:27.217Z,12.10
2023-02-16T05:03:29.302Z,12.10
2023-02-16T05:06:31.558Z,12.10
2023-02-16T05:09:33.723Z,12.00
2023-02-16T05:12:56.123Z,12.00
2023-02-16T05:16:04.944Z,12.00
2023-02-16T05:19:15.514Z,12.00
2023-02-16T05:22:19.244Z,11.90
2023-02-16T05:25:21.252Z,11.90
2023-02-16T05:28:23.575Z,11.90
2023-02-16T05:31:26.848Z,11.80
2023-02-16T05:34:28.989Z,11.80
2023-02-16T05:37:33.647Z,11.80
2023-02-16T05:40:44.735Z,11.80
2023-02-16T05:43:50.348Z,11.80
2023-02-16T05:46:52.531Z,11.80
2023-02-16T05:49:55.391Z,11.70
2023-02-16T05:52:57.902Z,11.70
2023-02-16T05:56:00.111Z,11.70
2023-02-16T05:59:02.322Z,11.70
2023-02-16T06:02:04.776Z,11.60
2023-02-16T06:05:07.220Z,11.60
2023-02-16T06:08:09.288Z,11.60
2023-02-16T06:11:31.862Z,11.60
2023-02-16T06:14:33.897Z,11.60
2023-02-16T06:17:35.980Z,11.50
2023-02-16T06:20:41.958Z,11.40
2023-02-16T06:23:43.964Z,11.40
2023-02-16T06:26:46.381Z,11.40
2023-02-16T06:29:48.531Z,11.40
2023-02-16T06:32:50.540Z,11.40
2023-02-16T06:35:53.976Z,11.40
2023-02-16T06:38:56.181Z,11.30
2023-02-16T06:41:58.453Z,11.30
2023-02-16T06:45:00.404Z,11.40
2023-02-16T06:48:02.413Z,11.30
2023-02-16T06:51:04.950Z,11.30
2023-02-16T06:54:07.289Z,11.30
2023-02-16T06:57:09.336Z,11.20
2023-02-16T07:00:11.956Z,11.20
2023-02-16T07:03:14.309Z,11.20
2023-02-16T07:06:16.609Z,11.20
2023-02-16T07:09:18.620Z,11.20
2023-02-16T07:12:20.730Z,11.20
2023-02-16T07:15:23.372Z,11.20
2023-02-16T07:18:25.582Z,11.20
2023-02-16T07:21:27.650Z,11.20
2023-02-16T07:24:29.686Z,11.30
2023-02-16T07:27:31.736Z,11.30
2023-02-16T07:30:33.951Z,11.40
2023-02-16T07:33:36.488Z,11.40
2023-02-16T07:36:38.571Z,11.50
2023-02-16T07:39:40.579Z,11.50
2023-02-16T07:42:42.670Z,11.60
2023-02-16T07:45:44.836Z,11.70
2023-02-16T07:48:50.581Z,11.80
2023-02-16T07:51:52.607Z,12.10
2023-02-16T07:54:54.796Z,12.60
2023-02-16T07:58:00.242Z,13.20
2023-02-16T08:01:10.843Z,13.70
2023-02-16T08:04:12.870Z,14.40
2023-02-16T08:07:16.232Z,15.10
2023-02-16T08:10:18.341Z,15.80
2023-02-16T08:13:20.362Z,16.20
2023-02-16T08:16:25.703Z,17.10
2023-02-16T08:19:29.417Z,17.80
2023-02-16T08:22:31.495Z,18.30
2023-02-16T08:25:34.628Z,19.20
2023-02-16T08:28:38.125Z,19.60
2023-02-16T08:31:40.321Z,20.30
2023-02-16T08:34:43.670Z,21.00
2023-02-16T08:37:46.176Z,21.80
2023-02-16T08:40:49.394Z,21.50
2023-02-16T08:43:52.495Z,22.60
2023-02-16T08:46:57.500Z,23.00
2023-02-16T08:49:59.851Z,23.20
2023-02-16T08:53:02.536Z,22.90
2023-02-16T08:56:05.314Z,23.70
2023-02-16T08:59:07.664Z,23.90
2023-02-16T09:02:14.599Z,24.80
2023-02-16T09:05:16.870Z,25.00
2023-02-16T09:08:19.825Z,25.50
2023-02-16T09:11:23.195Z,26.50
2023-02-16T09:14:25.561Z,26.40
2023-02-16T09:17:29.208Z,26.60
2023-02-16T09:20:31.381Z,26.60
2023-02-16T09:23:35.793Z,26.10
2023-02-16T09:26:42.753Z,26.10
2023-02-16T09:29:44.797Z,27.00
2023-02-16T09:32:47.200Z,27.30
2023-02-16T09:35:49.755Z,28.20
2023-02-16T09:38:52.656Z,28.50
2023-02-16T09:42:14.892Z,28.20
2023-02-16T09:45:20.519Z,27.70
2023-02-16T09:48:37.556Z,27.30
2023-02-16T09:51:44.685Z,27.50
2023-02-16T09:54:53.552Z,27.30
2023-02-16T09:58:19.301Z,27.20
2023-02-16T10:01:45.707Z,27.60
2023-02-16T10:04:54.290Z,27.70
2023-02-16T10:08:07.810Z,26.90
2023-02-16T10:11:45.760Z,27.70
2023-02-16T10:15:14.195Z,27.10
2023-02-16T10:18:33.656Z,26.20
2023-02-16T10:21:36.268Z,27.10
2023-02-16T10:25:02.478Z,27.90
2023-02-16T10:28:21.792Z,28.30
2023-02-16T10:31:40.429Z,28.10
2023-02-16T10:34:52.203Z,28.20
2023-02-16T10:37:59.385Z,28.00
2023-02-16T10:41:14.321Z,28.00
2023-02-16T10:44:21.079Z,28.50
2023-02-16T10:47:44.134Z,28.10
2023-02-16T10:50:58.923Z,28.80
2023-02-16T10:54:31.429Z,28.80
2023-02-16T10:57:33.817Z,28.80
2023-02-16T11:01:04.356Z,28.60
2023-02-16T11:04:06.721Z,28.50
2023-02-16T11:07:16.121Z,27.10
2023-02-16T11:10:35.194Z,26.80
2023-02-16T11:13:37.518Z,28.20
2023-02-16T11:16:39.582Z,28.20
2023-02-16T11:20:09.576Z,28.30
2023-02-16T11:23:25.339Z,28.70
2023-02-16T11:26:28.972Z,27.50
2023-02-16T11:29:31.696Z,26.50
2023-02-16T11:32:34.524Z,26.00
2023-02-16T11:35:43.646Z,25.50
2023-02-16T11:39:09.734Z,25.40
2023-02-16T11:42:40.405Z,25.80
2023-02-16T11:45:43.252Z,25.00
2023-02-16T11:48:46.433Z,25.00
2023-02-16T11:51:48.563Z,24.70
2023-02-16T11:55:02.112Z,25.20
2023-02-16T11:58:18.105Z,24.90
2023-02-16T12:01:23.270Z,24.80
2023-02-16T12:04:54.409Z,24.30
2023-02-16T12:08:32.436Z,23.00
2023-02-16T12:12:20.288Z,21.40
2023-02-16T12:15:40.167Z,20.50
2023-02-16T12:19:02.838Z,20.10
2023-02-16T12:22:27.668Z,19.30
2023-02-16T12:25:48.518Z,19.30
2023-02-16T12:29:09.211Z,18.80
2023-02-16T12:32:20.284Z,18.80
2023-02-16T12:35:56.974Z,18.50
2023-02-16T12:39:19.586Z,18.60
2023-02-16T12:42:44.452Z,18.60
2023-02-16T12:45:47.341Z,18.60
2023-02-16T12:48:57.192Z,18.50
2023-02-16T12:52:25.768Z,18.50
2023-02-16T12:55:31.123Z,18.40
2023-02-16T12:58:37.703Z,18.20
2023-02-16T13:01:40.546Z,18.10
2023-02-16T13:05:01.957Z,18.00
2023-02-16T13:08:42.576Z,18.00
2023-02-16T13:12:00.077Z,17.90
2023-02-16T13:15:13.330Z,18.10
2023-02-16T13:18:28.530Z,18.10
2023-02-16T13:21:52.793Z,18.00
2023-02-16T13:25:35.897Z,18.00
2023-02-16T13:28:44.105Z,17.90
2023-02-16T13:35:40.897Z,17.90
2023-02-16T13:39:04.507Z,17.90
2023-02-16T13:42:30.068Z,17.80
2023-02-16T13:45:38.517Z,17.90
2023-02-16T13:48:48.751Z,18.00
2023-02-16T13:51:50.834Z,18.10
2023-02-16T13:54:53.796Z,18.20
2023-02-16T13:58:07.763Z,18.10
2023-02-16T14:01:28.615Z,18.20
2023-02-16T14:04:31.588Z,18.30
2023-02-16T14:07:38.027Z,18.40
2023-02-16T14:10:55.211Z,18.50
2023-02-16T14:13:57.298Z,18.40
2023-02-16T14:17:24.157Z,18.50
2023-02-16T14:20:29.227Z,18.60
2023-02-16T14:23:34.925Z,18.60
2023-02-16T14:27:07.778Z,18.70
2023-02-16T14:30:29.066Z,18.60
2023-02-16T14:33:56.719Z,18.50
2023-02-16T14:37:17.155Z,18.60
2023-02-16T14:40:51.767Z,18.70
2023-02-16T14:44:06.161Z,18.80
2023-02-16T14:47:41.470Z,18.70
2023-02-16T14:50:55.320Z,18.60
2023-02-16T14:54:27.533Z,18.70
2023-02-16T14:57:38.493Z,18.60
2023-02-16T15:01:11.206Z,18.70
2023-02-16T15:04:26.336Z,18.80
2023-02-16T15:07:29.015Z,18.90
2023-02-16T15:10:32.358Z,18.90
2023-02-16T15:13:35.026Z,18.90
2023-02-16T15:16:40.950Z,18.90
2023-02-16T15:19:44.112Z,18.90
2023-02-16T15:22:54.517Z,19.00
2023-02-16T15:26:04.147Z,19.00
2023-02-16T15:29:27.243Z,18.90
2023-02-16T15:32:29.280Z,19.00
2023-02-16T15:35:44.054Z,19.00
2023-02-16T15:38:56.959Z,19.00
2023-02-16T15:42:20.855Z,19.00
2023-02-16T15:45:42.066Z,19.00
2023-02-16T15:48:44.446Z,19.00
2023-02-16T15:51:46.488Z,19.00
2023-02-16T15:54:49.331Z,19.10
2023-02-16T15:57:51.452Z,19.00
2023-02-16T16:00:55.045Z,19.00
2023-02-16T16:03:57.219Z,19.10
2023-02-16T16:07:00.382Z,19.00
2023-02-16T16:10:09.603Z,19.00
2023-02-16T16:13:31.050Z,19.00
2023-02-16T16:16:33.744Z,19.00
2023-02-16T16:19:38.437Z,19.00
2023-02-16T16:22:42.993Z,19.00
2023-02-16T16:25:47.878Z,19.00
2023-02-16T16:28:50.638Z,19.00
2023-02-16T16:31:54.004Z,19.00
2023-02-16T16:34:56.674Z,19.00
2023-02-16T16:38:00.875Z,19.00
2023-02-16T16:41:04.178Z,18.90
2023-02-16T16:44:12.664Z,19.00
2023-02-16T16:47:23.822Z,18.90
2023-02-16T16:50:37.216Z,18.90
2023-02-16T16:54:01.837Z,18.80
2023-02-16T16:57:15.241Z,18.90
2023-02-16T17:00:19.518Z,18.80
2023-02-16T17:03:22.594Z,18.80
2023-02-16T17:06:25.843Z,18.80
2023-02-16T17:09:27.938Z,18.80
2023-02-16T17:12:31.703Z,18.80
2023-02-16T17:15:51.837Z,18.70
2023-02-16T17:18:54.363Z,18.70
2023-02-16T17:21:56.377Z,18.60
2023-02-16T17:24:58.510Z,18.50
2023-02-16T17:28:01.242Z,18.50
2023-02-16T17:31:08.366Z,18.50
2023-02-16T17:34:11.438Z,18.50
2023-02-16T17:37:13.593Z,18.40
2023-02-16T17:40:19.688Z,18.40
2023-02-16T17:43:22.850Z,18.40
2023-02-16T17:46:27.048Z,18.30
2023-02-16T17:49:31.366Z,18.30
2023-02-16T17:52:33.419Z,18.20
2023-02-16T17:55:35.367Z,18.20
2023-02-16T17:58:37.357Z,18.10
2023-02-16T18:01:39.410Z,18.00
2023-02-16T18:04:41.542Z,18.00
2023-02-16T18:07:43.625Z,17.90
2023-02-16T18:10:51.505Z,17.90
2023-02-16T18:13:53.633Z,17.80
2023-02-16T18:16:56.017Z,17.80
2023-02-16T18:19:58.041Z,17.70
2023-02-16T18:23:00.529Z,17.70
2023-02-16T18:26:03.570Z,17.60
2023-02-16T18:29:06.074Z,17.60
2023-02-16T18:32:08.250Z,17.60
2023-02-16T18:35:10.935Z,17.50
2023-02-16T18:38:13.550Z,17.50
2023-02-16T18:41:15.621Z,17.40
2023-02-16T18:44:17.807Z,17.40
2023-02-16T18:47:19.979Z,17.30
2023-02-16T18:50:21.923Z,17.30
2023-02-16T18:53:23.914Z,17.30
2023-02-16T18:56:26.093Z,17.30
2023-02-16T18:59:28.381Z,17.20
2023-02-16T19:02:30.417Z,17.20
2023-02-16T19:05:33.849Z,17.20
2023-02-16T19:08:36.235Z,17.10
2023-02-16T19:11:38.292Z,17.10
2023-02-16T19:14:40.393Z,17.00
2023-02-16T19:17:42.913Z,17.00
2023-02-16T19:20:44.922Z,16.90
2023-02-16T19:23:47.131Z,16.90
2023-02-16T19:26:49.321Z,16.90
2023-02-16T19:29:51.504Z,16.80
2023-02-16T19:32:53.549Z,16.80
2023-02-16T19:36:07.346Z,16.70
2023-02-16T19:39:10.464Z,16.70
2023-02-16T19:42:12.639Z,16.70
2023-02-16T19:45:14.647Z,16.70
2023-02-16T19:48:18.966Z,16.70
2023-02-16T19:51:21.050Z,16.60
2023-02-16T19:54:25.274Z,16.60
2023-02-16T19:57:27.444Z,16.60
2023-02-16T20:00:30.369Z,16.50
2023-02-16T20:03:32.493Z,16.50
2023-02-16T20:06:40.559Z,16.50
2023-02-16T20:09:42.915Z,16.50
2023-02-16T20:12:44.947Z,16.40
2023-02-16T20:15:47.198Z,16.40
2023-02-16T20:18:50.452Z,16.30
2023-02-16T20:21:52.474Z,16.30
2023-02-16T20:24:54.526Z,16.30
2023-02-16T20:27:57.878Z,16.20
2023-02-16T20:31:00.109Z,16.30
2023-02-16T20:34:03.266Z,16.20
2023-02-16T20:37:05.307Z,16.20
2023-02-16T20:40:07.921Z,16.20
2023-02-16T20:43:10.158Z,16.20
2023-02-16T20:46:13.083Z,16.20
2023-02-16T20:49:16.524Z,16.20
2023-02-16T20:52:18.570Z,16.20
2023-02-16T20:55:22.544Z,16.20
2023-02-16T20:58:24.670Z,16.20
2023-02-16T21:01:33.342Z,16.20
2023-02-16T21:04:35.431Z,16.10
2023-02-16T21:07:37.541Z,16.10
2023-02-16T21:10:39.925Z,16.00
2023-02-16T21:13:42.065Z,16.00
2023-02-16T21:16:44.281Z,16.00
2023-02-16T21:19:46.318Z,16.00
2023-02-16T21:22:48.370Z,15.90
2023-02-16T21:25:50.418Z,15.90
2023-02-16T21:28:53.042Z,15.80
2023-02-16T21:31:55.144Z,15.80
2023-02-16T21:34:57.242Z,15.80
2023-02-16T21:37:59.368Z,15.70
2023-02-16T21:41:24.796Z,15.70
2023-02-16T21:44:28.501Z,15.70
2023-02-16T21:47:49.136Z,15.70
2023-02-16T21:50:51.245Z,15.60
2023-02-16T21:53:53.912Z,15.60
2023-02-16T21:56:55.921Z,15.60
2023-02-16T21:59:58.022Z,15.60
2023-02-16T22:03:00.226Z,15.60
2023-02-16T22:06:07.342Z,15.60
2023-02-16T22:09:18.004Z,15.50
2023-02-16T22:12:20.042Z,15.50
2023-02-16T22:15:22.449Z,15.50
2023-02-16T22:18:24.517Z,15.40
2023-02-16T22:21:27.784Z,15.40
2023-02-16T22:24:29.963Z,15.40
2023-02-16T22:27:32.081Z,15.30
2023-02-16T22:30:37.143Z,15.30
2023-02-16T22:33:39.243Z,15.30
2023-02-16T22:36:42.070Z,15.20
2023-02-16T22:39:44.232Z,15.20
2023-02-16T22:42:46.713Z,15.20
2023-02-16T22:45:49.623Z,15.20
2023-02-16T22:48:52.328Z,15.20
2023-02-16T22:51:54.420Z,15.30
2023-02-16T22:54:56.853Z,15.30
2023-02-16T22:57:58.870Z,15.30
2023-02-16T23:01:01.041Z,15.30
2023-02-16T23:04:03.122Z,15.30
2023-02-16T23:07:05.245Z,15.20
2023-02-16T23:10:07.789Z,15.20
2023-02-16T23:13:10.290Z,15.20
2023-02-16T23:16:15.010Z,15.20
2023-02-16T23:19:21.125Z,15.20
2023-02-16T23:22:23.125Z,15.10
2023-02-16T23:25:34.080Z,15.10
2023-02-16T23:28:38.366Z,15.10
2023-02-16T23:31:43.404Z,15.10
2023-02-16T23:34:45.455Z,15.10
2023-02-16T23:37:47.618Z,15.10
2023-02-16T23:41:04.641Z,15.10
2023-02-16T23:44:07.769Z,15.00
2023-02-16T23:47:10.212Z,15.00
2023-02-16T23:50:12.355Z,15.00
2023-02-16T23:53:14.424Z,15.00
2023-02-16T23:56:27.847Z,15.00
2023-02-16T23:59:30.598Z,15.00
